sensor_id;sensor_type;location;lat;lon;timestamp;pressure;altitude;pressure_sealevel;temperature;humidity
46394;BME280;32099;53.588;10.176;2023-01-25T00:01:40;103471.13;;;1.55;76.16
46394;BME280;32099;53.588;10.176;2023-01-25T00:04:05;103467.50;;;1.56;76.04
46394;BME280;32099;53.588;10.176;2023-01-25T00:06:30;103471.94;;;1.57;76.33
46394;BME280;32099;53.588;10.176;2023-01-25T00:08:55;103467.44;;;1.58;76.06
46394;BME280;32099;53.588;10.176;2023-01-25T00:11:21;103451.19;;;1.61;76.05
46394;BME280;32099;53.588;10.176;2023-01-25T00:13:46;103458.38;;;1.60;75.87
46394;BME280;32099;53.588;10.176;2023-01-25T00:16:11;103452.19;;;1.58;75.89
46394;BME280;32099;53.588;10.176;2023-01-25T00:18:37;103451.34;;;1.56;76.26
46394;BME280;32099;53.588;10.176;2023-01-25T00:21:16;103449.00;;;1.47;76.27
46394;BME280;32099;53.588;10.176;2023-01-25T00:23:43;103440.13;;;1.45;76.10
46394;BME280;32099;53.588;10.176;2023-01-25T00:26:08;103441.91;;;1.44;76.26
46394;BME280;32099;53.588;10.176;2023-01-25T00:28:34;103450.88;;;1.45;76.70
46394;BME280;32099;53.588;10.176;2023-01-25T00:30:59;103450.81;;;1.46;76.52
46394;BME280;32099;53.588;10.176;2023-01-25T00:33:33;103452.75;;;1.43;76.32
46394;BME280;32099;53.588;10.176;2023-01-25T00:38:52;103440.13;;;1.45;76.46
46394;BME280;32099;53.588;10.176;2023-01-25T00:41:18;103440.00;;;1.48;76.25
46394;BME280;32099;53.588;10.176;2023-01-25T00:43:43;103437.25;;;1.49;76.12
46394;BME280;32099;53.588;10.176;2023-01-25T00:46:08;103430.94;;;1.50;76.36
46394;BME280;32099;53.588;10.176;2023-01-25T00:48:41;103433.63;;;1.50;76.35
46394;BME280;32099;53.588;10.176;2023-01-25T00:51:07;103429.25;;;1.48;75.69
46394;BME280;32099;53.588;10.176;2023-01-25T00:53:33;103431.13;;;1.46;76.03
46394;BME280;32099;53.588;10.176;2023-01-25T00:55:58;103416.19;;;1.37;75.72
46394;BME280;32099;53.588;10.176;2023-01-25T00:58:23;103424.25;;;1.37;75.65
46394;BME280;32099;53.588;10.176;2023-01-25T01:00:50;103415.44;;;1.33;75.51
46394;BME280;32099;53.588;10.176;2023-01-25T01:03:16;103407.47;;;1.30;75.49
46394;BME280;32099;53.588;10.176;2023-01-25T01:05:41;103406.72;;;1.27;75.73
46394;BME280;32099;53.588;10.176;2023-01-25T01:08:06;103411.28;;;1.25;75.99
46394;BME280;32099;53.588;10.176;2023-01-25T01:10:32;103406.72;;;1.27;76.40
46394;BME280;32099;53.588;10.176;2023-01-25T01:12:57;103412.91;;;1.29;76.14
46394;BME280;32099;53.588;10.176;2023-01-25T01:15:22;103413.09;;;1.24;75.46
46394;BME280;32099;53.588;10.176;2023-01-25T01:17:48;103416.66;;;1.25;75.95
46394;BME280;32099;53.588;10.176;2023-01-25T01:20:13;103419.31;;;1.26;75.80
46394;BME280;32099;53.588;10.176;2023-01-25T01:22:38;103414.03;;;1.23;76.11
46394;BME280;32099;53.588;10.176;2023-01-25T01:25:04;103406.13;;;1.18;75.83
46394;BME280;32099;53.588;10.176;2023-01-25T01:27:30;103400.09;;;1.12;75.99
46394;BME280;32099;53.588;10.176;2023-01-25T01:29:55;103404.66;;;1.10;76.08
46394;BME280;32099;53.588;10.176;2023-01-25T01:32:21;103405.50;;;1.10;76.64
46394;BME280;32099;53.588;10.176;2023-01-25T01:34:46;103401.84;;;1.13;76.54
46394;BME280;32099;53.588;10.176;2023-01-25T01:37:11;103407.16;;;1.14;76.35
46394;BME280;32099;53.588;10.176;2023-01-25T01:39:36;103397.34;;;1.13;76.30
46394;BME280;32099;53.588;10.176;2023-01-25T01:42:02;103408.16;;;1.12;76.29
46394;BME280;32099;53.588;10.176;2023-01-25T01:44:47;103401.09;;;1.09;76.35
46394;BME280;32099;53.588;10.176;2023-01-25T01:47:19;103398.50;;;1.06;76.45
46394;BME280;32099;53.588;10.176;2023-01-25T01:49:55;103396.97;;;0.99;76.65
46394;BME280;32099;53.588;10.176;2023-01-25T01:52:38;103396.19;;;0.95;77.06
46394;BME280;32099;53.588;10.176;2023-01-25T01:55:05;103399.72;;;0.97;76.93
46394;BME280;32099;53.588;10.176;2023-01-25T01:57:40;103392.59;;;0.96;77.20
46394;BME280;32099;53.588;10.176;2023-01-25T02:00:15;103386.34;;;0.96;77.02
46394;BME280;32099;53.588;10.176;2023-01-25T02:02:47;103389.97;;;0.95;77.30
46394;BME280;32099;53.588;10.176;2023-01-25T02:05:19;103386.28;;;0.97;77.18
46394;BME280;32099;53.588;10.176;2023-01-25T02:08:08;103377.28;;;0.98;77.30
46394;BME280;32099;53.588;10.176;2023-01-25T02:10:37;103378.22;;;0.97;76.73
46394;BME280;32099;53.588;10.176;2023-01-25T02:13:03;103379.25;;;0.93;77.41
46394;BME280;32099;53.588;10.176;2023-01-25T02:15:32;103378.50;;;0.89;77.12
46394;BME280;32099;53.588;10.176;2023-01-25T02:18:03;103380.22;;;0.92;76.85
46394;BME280;32099;53.588;10.176;2023-01-25T02:20:33;103376.69;;;0.90;76.96
46394;BME280;32099;53.588;10.176;2023-01-25T02:23:04;103375.88;;;0.88;76.97
46394;BME280;32099;53.588;10.176;2023-01-25T02:25:36;103374.19;;;0.85;77.19
46394;BME280;32099;53.588;10.176;2023-01-25T02:28:04;103375.97;;;0.85;77.13
46394;BME280;32099;53.588;10.176;2023-01-25T02:30:35;103373.19;;;0.88;77.24
46394;BME280;32099;53.588;10.176;2023-01-25T02:33:01;103375.69;;;0.92;76.86
46394;BME280;32099;53.588;10.176;2023-01-25T02:35:36;103375.75;;;0.91;76.95
46394;BME280;32099;53.588;10.176;2023-01-25T02:38:05;103366.13;;;0.85;76.85
46394;BME280;32099;53.588;10.176;2023-01-25T02:40:31;103362.59;;;0.83;76.64
46394;BME280;32099;53.588;10.176;2023-01-25T02:43:04;103360.00;;;0.80;77.11
46394;BME280;32099;53.588;10.176;2023-01-25T02:45:30;103354.81;;;0.75;77.20
46394;BME280;32099;53.588;10.176;2023-01-25T02:47:55;103360.13;;;0.77;77.45
46394;BME280;32099;53.588;10.176;2023-01-25T02:50:21;103348.25;;;0.84;77.19
46394;BME280;32099;53.588;10.176;2023-01-25T02:52:46;103354.38;;;0.88;76.70
46394;BME280;32099;53.588;10.176;2023-01-25T02:55:11;103343.78;;;0.83;76.71
46394;BME280;32099;53.588;10.176;2023-01-25T02:57:37;103351.09;;;0.80;76.97
46394;BME280;32099;53.588;10.176;2023-01-25T03:00:02;103346.69;;;0.77;77.43
46394;BME280;32099;53.588;10.176;2023-01-25T03:02:29;103344.88;;;0.77;77.42
46394;BME280;32099;53.588;10.176;2023-01-25T03:04:55;103340.47;;;0.75;77.37
46394;BME280;32099;53.588;10.176;2023-01-25T03:07:20;103344.22;;;0.71;77.25
46394;BME280;32099;53.588;10.176;2023-01-25T03:09:45;103330.78;;;0.71;77.81
46394;BME280;32099;53.588;10.176;2023-01-25T03:12:10;103323.78;;;0.67;77.25
46394;BME280;32099;53.588;10.176;2023-01-25T03:14:36;103324.84;;;0.63;77.60
46394;BME280;32099;53.588;10.176;2023-01-25T03:17:01;103324.03;;;0.59;77.44
46394;BME280;32099;53.588;10.176;2023-01-25T03:19:26;103322.25;;;0.59;78.13
46394;BME280;32099;53.588;10.176;2023-01-25T03:21:52;103330.31;;;0.59;77.85
46394;BME280;32099;53.588;10.176;2023-01-25T03:24:17;103323.06;;;0.61;78.07
46394;BME280;32099;53.588;10.176;2023-01-25T03:26:42;103320.31;;;0.63;77.93
46394;BME280;32099;53.588;10.176;2023-01-25T03:29:26;103310.50;;;0.62;77.91
46394;BME280;32099;53.588;10.176;2023-01-25T03:31:51;103309.59;;;0.63;77.69
46394;BME280;32099;53.588;10.176;2023-01-25T03:34:17;103302.25;;;0.68;77.80
46394;BME280;32099;53.588;10.176;2023-01-25T03:36:42;103299.56;;;0.68;77.57
46394;BME280;32099;53.588;10.176;2023-01-25T03:39:08;103304.13;;;0.65;78.12
46394;BME280;32099;53.588;10.176;2023-01-25T03:41:33;103299.75;;;0.62;77.78
46394;BME280;32099;53.588;10.176;2023-01-25T03:43:58;103296.16;;;0.63;78.19
46394;BME280;32099;53.588;10.176;2023-01-25T03:46:24;103289.03;;;0.62;77.68
46394;BME280;32099;53.588;10.176;2023-01-25T03:48:49;103292.63;;;0.61;78.09
46394;BME280;32099;53.588;10.176;2023-01-25T03:51:14;103291.72;;;0.62;77.88
46394;BME280;32099;53.588;10.176;2023-01-25T03:53:40;103297.16;;;0.60;77.86
46394;BME280;32099;53.588;10.176;2023-01-25T03:56:07;103292.59;;;0.63;77.89
46394;BME280;32099;53.588;10.176;2023-01-25T03:58:34;103299.84;;;0.60;77.87
46394;BME280;32099;53.588;10.176;2023-01-25T04:01:01;103295.38;;;0.59;77.71
46394;BME280;32099;53.588;10.176;2023-01-25T04:03:27;103279.28;;;0.59;77.74
46394;BME280;32099;53.588;10.176;2023-01-25T04:05:53;103284.97;;;0.50;77.89
46394;BME280;32099;53.588;10.176;2023-01-25T04:08:20;103287.88;;;0.44;78.17
46394;BME280;32099;53.588;10.176;2023-01-25T04:10:49;103287.00;;;0.43;77.88
46394;BME280;32099;53.588;10.176;2023-01-25T04:13:20;103278.81;;;0.46;78.03
46394;BME280;32099;53.588;10.176;2023-01-25T04:15:46;103281.47;;;0.48;78.08
46394;BME280;32099;53.588;10.176;2023-01-25T04:18:12;103292.13;;;0.51;78.23
46394;BME280;32099;53.588;10.176;2023-01-25T04:20:37;103291.97;;;0.54;78.01
46394;BME280;32099;53.588;10.176;2023-01-25T04:23:02;103282.06;;;0.56;77.79
46394;BME280;32099;53.588;10.176;2023-01-25T04:25:28;103276.75;;;0.55;77.25
46394;BME280;32099;53.588;10.176;2023-01-25T04:27:53;103271.50;;;0.52;77.11
46394;BME280;32099;53.588;10.176;2023-01-25T04:30:18;103277.88;;;0.48;77.24
46394;BME280;32099;53.588;10.176;2023-01-25T04:32:44;103272.75;;;0.41;77.28
46394;BME280;32099;53.588;10.176;2023-01-25T04:35:10;103273.78;;;0.37;77.67
46394;BME280;32099;53.588;10.176;2023-01-25T04:37:35;103272.91;;;0.37;77.58
46394;BME280;32099;53.588;10.176;2023-01-25T04:40:01;103257.63;;;0.39;77.47
46394;BME280;32099;53.588;10.176;2023-01-25T04:42:26;103254.06;;;0.38;77.81
46394;BME280;32099;53.588;10.176;2023-01-25T04:44:51;103255.00;;;0.37;77.66
46394;BME280;32099;53.588;10.176;2023-01-25T04:47:16;103254.88;;;0.40;77.73
46394;BME280;32099;53.588;10.176;2023-01-25T04:49:42;103246.78;;;0.42;77.37
46394;BME280;32099;53.588;10.176;2023-01-25T04:52:07;103251.28;;;0.41;77.23
46394;BME280;32099;53.588;10.176;2023-01-25T04:54:32;103250.34;;;0.42;77.59
46394;BME280;32099;53.588;10.176;2023-01-25T04:56:57;103251.19;;;0.44;77.40
46394;BME280;32099;53.588;10.176;2023-01-25T04:59:23;103245.63;;;0.49;76.76
46394;BME280;32099;53.588;10.176;2023-01-25T05:01:48;103237.44;;;0.52;76.62
46394;BME280;32099;53.588;10.176;2023-01-25T05:04:13;103238.44;;;0.50;76.42
46394;BME280;32099;53.588;10.176;2023-01-25T05:06:39;103236.00;;;0.43;76.94
46394;BME280;32099;53.588;10.176;2023-01-25T05:09:04;103239.63;;;0.41;77.00
46394;BME280;32099;53.588;10.176;2023-01-25T05:11:29;103239.59;;;0.42;76.62
46394;BME280;32099;53.588;10.176;2023-01-25T05:13:54;103238.69;;;0.43;76.80
46394;BME280;32099;53.588;10.176;2023-01-25T05:16:20;103234.22;;;0.42;76.67
46394;BME280;32099;53.588;10.176;2023-01-25T05:18:45;103235.06;;;0.44;76.91
46394;BME280;32099;53.588;10.176;2023-01-25T05:21:10;103234.94;;;0.48;77.06
46394;BME280;32099;53.588;10.176;2023-01-25T05:23:56;103223.22;;;0.50;76.71
46394;BME280;32099;53.588;10.176;2023-01-25T05:26:21;103224.91;;;0.53;76.48
46394;BME280;32099;53.588;10.176;2023-01-25T05:29:05;103223.97;;;0.54;76.19
46394;BME280;32099;53.588;10.176;2023-01-25T05:31:30;103219.44;;;0.56;75.88
46394;BME280;32099;53.588;10.176;2023-01-25T05:33:56;103209.47;;;0.58;76.40
46394;BME280;32099;53.588;10.176;2023-01-25T05:36:21;103205.88;;;0.59;76.23
46394;BME280;32099;53.588;10.176;2023-01-25T05:38:46;103209.56;;;0.56;75.94
46394;BME280;32099;53.588;10.176;2023-01-25T05:41:12;103205.13;;;0.55;76.40
46394;BME280;32099;53.588;10.176;2023-01-25T05:43:37;103203.31;;;0.56;76.03
46394;BME280;32099;53.588;10.176;2023-01-25T05:46:02;103204.13;;;0.58;75.95
46394;BME280;32099;53.588;10.176;2023-01-25T05:48:29;103206.03;;;0.54;76.26
46394;BME280;32099;53.588;10.176;2023-01-25T05:50:57;103205.28;;;0.51;76.16
46394;BME280;32099;53.588;10.176;2023-01-25T05:53:26;103209.81;;;0.49;75.83
46394;BME280;32099;53.588;10.176;2023-01-25T05:55:52;103206.28;;;0.48;76.33
46394;BME280;32099;53.588;10.176;2023-01-25T05:58:17;103203.53;;;0.50;76.22
46394;BME280;32099;53.588;10.176;2023-01-25T06:00:42;103200.84;;;0.50;76.40
46394;BME280;32099;53.588;10.176;2023-01-25T06:03:08;103197.22;;;0.51;76.04
46394;BME280;32099;53.588;10.176;2023-01-25T06:05:33;103192.56;;;0.56;76.21
46394;BME280;32099;53.588;10.176;2023-01-25T06:07:59;103181.84;;;0.56;75.86
46394;BME280;32099;53.588;10.176;2023-01-25T06:10:24;103180.09;;;0.55;76.25
46394;BME280;32099;53.588;10.176;2023-01-25T06:12:49;103181.69;;;0.59;76.32
46394;BME280;32099;53.588;10.176;2023-01-25T06:15:15;103183.53;;;0.58;76.00
46394;BME280;32099;53.588;10.176;2023-01-25T06:17:40;103185.44;;;0.55;75.90
46394;BME280;32099;53.588;10.176;2023-01-25T06:20:05;103183.63;;;0.55;76.04
46394;BME280;32099;53.588;10.176;2023-01-25T06:22:31;103190.06;;;0.51;75.77
46394;BME280;32099;53.588;10.176;2023-01-25T06:24:56;103181.38;;;0.44;75.90
46394;BME280;32099;53.588;10.176;2023-01-25T06:27:22;103182.31;;;0.42;76.26
46394;BME280;32099;53.588;10.176;2023-01-25T06:29:47;103185.94;;;0.41;75.97
46394;BME280;32099;53.588;10.176;2023-01-25T06:32:12;103191.44;;;0.38;76.26
46394;BME280;32099;53.588;10.176;2023-01-25T06:34:38;103191.44;;;0.38;76.45
46394;BME280;32099;53.588;10.176;2023-01-25T06:37:03;103193.13;;;0.40;76.27
46394;BME280;32099;53.588;10.176;2023-01-25T06:39:28;103186.78;;;0.43;76.64
46394;BME280;32099;53.588;10.176;2023-01-25T06:41:54;103187.50;;;0.48;76.42
46394;BME280;32099;53.588;10.176;2023-01-25T06:44:20;103189.16;;;0.51;75.94
46394;BME280;32099;53.588;10.176;2023-01-25T06:46:45;103190.00;;;0.53;76.26
46394;BME280;32099;53.588;10.176;2023-01-25T06:49:10;103192.69;;;0.53;76.07
46394;BME280;32099;53.588;10.176;2023-01-25T06:51:36;103188.41;;;0.47;76.13
46394;BME280;32099;53.588;10.176;2023-01-25T06:54:02;103189.34;;;0.46;76.32
46394;BME280;32099;53.588;10.176;2023-01-25T06:56:28;103189.41;;;0.44;76.01
46394;BME280;32099;53.588;10.176;2023-01-25T06:58:53;103195.47;;;0.50;76.03
46394;BME280;32099;53.588;10.176;2023-01-25T07:01:19;103195.47;;;0.50;76.56
46394;BME280;32099;53.588;10.176;2023-01-25T07:03:47;103195.47;;;0.50;76.75
46394;BME280;32099;53.588;10.176;2023-01-25T07:06:13;103191.75;;;0.54;76.49
46394;BME280;32099;53.588;10.176;2023-01-25T07:08:38;103185.28;;;0.59;76.23
46394;BME280;32099;53.588;10.176;2023-01-25T07:11:04;103186.09;;;0.61;76.16
46394;BME280;32099;53.588;10.176;2023-01-25T07:13:31;103176.28;;;0.60;76.09
46394;BME280;32099;53.588;10.176;2023-01-25T07:15:59;103178.97;;;0.60;76.20
46394;BME280;32099;53.588;10.176;2023-01-25T07:18:29;103176.22;;;0.62;76.56
46394;BME280;32099;53.588;10.176;2023-01-25T07:21:02;103171.75;;;0.63;76.09
46394;BME280;32099;53.588;10.176;2023-01-25T07:23:29;103165.38;;;0.65;76.52
46394;BME280;32099;53.588;10.176;2023-01-25T07:25:56;103167.97;;;0.67;76.29
46394;BME280;32099;53.588;10.176;2023-01-25T07:28:22;103166.19;;;0.67;76.29
46394;BME280;32099;53.588;10.176;2023-01-25T07:30:47;103159.09;;;0.65;76.20
46394;BME280;32099;53.588;10.176;2023-01-25T07:33:13;103152.88;;;0.64;76.38
46394;BME280;32099;53.588;10.176;2023-01-25T07:35:38;103151.88;;;0.67;76.32
46394;BME280;32099;53.588;10.176;2023-01-25T07:38:03;103153.72;;;0.65;76.36
46394;BME280;32099;53.588;10.176;2023-01-25T07:40:29;103151.94;;;0.65;76.42
46394;BME280;32099;53.588;10.176;2023-01-25T07:42:54;103143.88;;;0.65;76.05
46394;BME280;32099;53.588;10.176;2023-01-25T07:45:19;103153.91;;;0.60;76.35
46394;BME280;32099;53.588;10.176;2023-01-25T07:47:45;103148.53;;;0.60;76.56
46394;BME280;32099;53.588;10.176;2023-01-25T07:50:10;103143.13;;;0.61;76.58
46394;BME280;32099;53.588;10.176;2023-01-25T07:52:36;103142.19;;;0.63;76.66
46394;BME280;32099;53.588;10.176;2023-01-25T07:55:01;103143.81;;;0.67;76.67
46394;BME280;32099;53.588;10.176;2023-01-25T07:57:27;103134.75;;;0.69;76.45
46394;BME280;32099;53.588;10.176;2023-01-25T07:59:53;103133.81;;;0.70;76.39
46394;BME280;32099;53.588;10.176;2023-01-25T08:02:18;103124.81;;;0.71;76.37
46394;BME280;32099;53.588;10.176;2023-01-25T08:04:43;103119.25;;;0.76;76.30
46394;BME280;32099;53.588;10.176;2023-01-25T08:07:09;103119.34;;;0.74;76.13
46394;BME280;32099;53.588;10.176;2023-01-25T08:09:34;103121.28;;;0.71;76.10
46394;BME280;32099;53.588;10.176;2023-01-25T08:12:00;103112.97;;;0.77;75.95
46394;BME280;32099;53.588;10.176;2023-01-25T08:14:25;103115.59;;;0.79;75.77
46394;BME280;32099;53.588;10.176;2023-01-25T08:16:50;103107.78;;;0.72;75.83
46394;BME280;32099;53.588;10.176;2023-01-25T08:19:16;103116.00;;;0.68;76.28
46394;BME280;32099;53.588;10.176;2023-01-25T08:21:43;103123.25;;;0.66;76.18
46394;BME280;32099;53.588;10.176;2023-01-25T08:24:09;103107.22;;;0.64;76.15
46394;BME280;32099;53.588;10.176;2023-01-25T08:26:34;103100.16;;;0.61;76.39
46394;BME280;32099;53.588;10.176;2023-01-25T08:29:00;103102.88;;;0.60;76.55
46394;BME280;32099;53.588;10.176;2023-01-25T08:31:27;103103.13;;;0.54;76.21
46394;BME280;32099;53.588;10.176;2023-01-25T08:33:54;103104.88;;;0.55;76.51
46394;BME280;32099;53.588;10.176;2023-01-25T08:36:20;103101.28;;;0.56;76.30
46394;BME280;32099;53.588;10.176;2023-01-25T08:38:51;103092.22;;;0.58;76.86
46394;BME280;32099;53.588;10.176;2023-01-25T08:41:18;103089.34;;;0.63;76.71
46394;BME280;32099;53.588;10.176;2023-01-25T08:43:44;103090.16;;;0.65;76.55
46394;BME280;32099;53.588;10.176;2023-01-25T08:46:10;103080.28;;;0.66;76.72
46394;BME280;32099;53.588;10.176;2023-01-25T08:48:37;103078.41;;;0.68;76.61
46394;BME280;32099;53.588;10.176;2023-01-25T08:51:02;103074.78;;;0.69;76.21
46394;BME280;32099;53.588;10.176;2023-01-25T08:53:29;103057.19;;;0.61;76.19
46394;BME280;32099;53.588;10.176;2023-01-25T08:56:01;103063.19;;;0.68;76.52
46394;BME280;32099;53.588;10.176;2023-01-25T08:58:27;103066.75;;;0.69;76.60
46394;BME280;32099;53.588;10.176;2023-01-25T09:00:53;103056.00;;;0.69;76.46
46394;BME280;32099;53.588;10.176;2023-01-25T09:03:19;103060.25;;;0.74;76.33
46394;BME280;32099;53.588;10.176;2023-01-25T09:05:44;103050.97;;;0.82;76.36
46394;BME280;32099;53.588;10.176;2023-01-25T09:08:09;103045.50;;;0.85;76.13
46394;BME280;32099;53.588;10.176;2023-01-25T09:10:35;103042.81;;;0.85;76.28
46394;BME280;32099;53.588;10.176;2023-01-25T09:13:00;103046.44;;;0.84;75.80
46394;BME280;32099;53.588;10.176;2023-01-25T09:15:26;103051.91;;;0.81;75.56
46394;BME280;32099;53.588;10.176;2023-01-25T09:17:55;103046.81;;;0.74;75.79
46394;BME280;32099;53.588;10.176;2023-01-25T09:20:21;103048.63;;;0.74;75.92
46394;BME280;32099;53.588;10.176;2023-01-25T09:22:47;103044.31;;;0.70;76.07
46394;BME280;32099;53.588;10.176;2023-01-25T09:25:13;103031.94;;;0.66;76.34
46394;BME280;32099;53.588;10.176;2023-01-25T09:27:38;103028.13;;;0.71;76.25
46394;BME280;32099;53.588;10.176;2023-01-25T09:30:05;103031.50;;;0.76;76.23
46394;BME280;32099;53.588;10.176;2023-01-25T09:32:31;103030.56;;;0.77;76.32
46394;BME280;32099;53.588;10.176;2023-01-25T09:34:56;103029.56;;;0.80;76.22
46394;BME280;32099;53.588;10.176;2023-01-25T09:37:22;103029.31;;;0.86;76.00
46394;BME280;32099;53.588;10.176;2023-01-25T09:39:47;103027.44;;;0.88;76.01
46394;BME280;32099;53.588;10.176;2023-01-25T09:45:06;103026.88;;;0.80;76.26
46394;BME280;32099;53.588;10.176;2023-01-25T09:52:58;103014.66;;;0.73;76.13
46394;BME280;32099;53.588;10.176;2023-01-25T09:55:36;103020.13;;;0.70;76.08
46394;BME280;32099;53.588;10.176;2023-01-25T09:58:03;103008.38;;;0.72;76.23
46394;BME280;32099;53.588;10.176;2023-01-25T10:00:33;103007.53;;;0.72;75.81
46394;BME280;32099;53.588;10.176;2023-01-25T10:03:04;103002.34;;;0.67;75.99
46394;BME280;32099;53.588;10.176;2023-01-25T10:05:43;103004.09;;;0.68;76.10
46394;BME280;32099;53.588;10.176;2023-01-25T10:08:18;103002.97;;;0.74;76.10
46394;BME280;32099;53.588;10.176;2023-01-25T10:10:54;103001.88;;;0.78;75.70
46394;BME280;32099;53.588;10.176;2023-01-25T10:13:26;102998.25;;;0.79;75.90
46394;BME280;32099;53.588;10.176;2023-01-25T10:15:57;103004.56;;;0.78;76.09
46394;BME280;32099;53.588;10.176;2023-01-25T10:18:37;103001.66;;;0.84;75.66
46394;BME280;32099;53.588;10.176;2023-01-25T10:21:16;103004.25;;;0.86;75.40
46394;BME280;32099;53.588;10.176;2023-01-25T10:23:52;102990.91;;;0.84;75.74
46394;BME280;32099;53.588;10.176;2023-01-25T10:26:35;102984.50;;;0.87;75.83
46394;BME280;32099;53.588;10.176;2023-01-25T10:29:12;102984.50;;;0.87;75.60
46394;BME280;32099;53.588;10.176;2023-01-25T10:31:45;102974.09;;;0.79;75.48
46394;BME280;32099;53.588;10.176;2023-01-25T10:34:17;102976.84;;;0.77;75.88
46394;BME280;32099;53.588;10.176;2023-01-25T10:36:49;102981.28;;;0.79;75.87
46394;BME280;32099;53.588;10.176;2023-01-25T10:39:19;102964.56;;;0.72;75.84
46394;BME280;32099;53.588;10.176;2023-01-25T10:41:55;102957.34;;;0.72;75.61
46394;BME280;32099;53.588;10.176;2023-01-25T10:44:26;102959.19;;;0.72;75.96
46394;BME280;32099;53.588;10.176;2023-01-25T10:49:55;102959.09;;;0.73;76.15
46394;BME280;32099;53.588;10.176;2023-01-25T10:52:26;102952.69;;;0.77;76.43
46394;BME280;32099;53.588;10.176;2023-01-25T10:57:53;102939.78;;;0.86;75.30
46394;BME280;32099;53.588;10.176;2023-01-25T11:02:47;102931.31;;;0.95;75.76
46394;BME280;32099;53.588;10.176;2023-01-25T11:07:54;102926.50;;;1.03;75.19
46394;BME280;32099;53.588;10.176;2023-01-25T11:10:27;102920.31;;;1.01;75.41
46394;BME280;32099;53.588;10.176;2023-01-25T11:15:39;102907.88;;;0.99;75.06
46394;BME280;32099;53.588;10.176;2023-01-25T11:18:06;102900.81;;;0.96;75.47
46394;BME280;32099;53.588;10.176;2023-01-25T11:20:37;102893.03;;;0.90;75.80
46394;BME280;32099;53.588;10.176;2023-01-25T11:23:03;102891.28;;;0.89;75.50
46394;BME280;32099;53.588;10.176;2023-01-25T11:30:39;102868.06;;;0.88;75.53
46394;BME280;32099;53.588;10.176;2023-01-25T11:33:08;102863.63;;;0.87;75.58
46394;BME280;32099;53.588;10.176;2023-01-25T11:35:35;102857.19;;;0.91;75.60
46394;BME280;32099;53.588;10.176;2023-01-25T11:40:56;102849.78;;;0.96;75.71
46394;BME280;32099;53.588;10.176;2023-01-25T11:49:24;102834.47;;;0.98;75.03
46394;BME280;32099;53.588;10.176;2023-01-25T11:52:19;102821.88;;;0.99;74.77
46394;BME280;32099;53.588;10.176;2023-01-25T11:55:26;102804.09;;;0.96;75.05
46394;BME280;32099;53.588;10.176;2023-01-25T11:58:11;102807.72;;;0.95;75.13
46394;BME280;32099;53.588;10.176;2023-01-25T12:01:03;102796.13;;;0.95;75.17
46394;BME280;32099;53.588;10.176;2023-01-25T12:03:45;102789.84;;;0.94;75.40
46394;BME280;32099;53.588;10.176;2023-01-25T12:06:19;102778.25;;;0.94;75.94
46394;BME280;32099;53.588;10.176;2023-01-25T12:12:02;102767.41;;;0.95;75.49
46394;BME280;32099;53.588;10.176;2023-01-25T12:17:20;102760.75;;;1.04;75.50
46394;BME280;32099;53.588;10.176;2023-01-25T12:22:27;102748.00;;;1.09;75.35
46394;BME280;32099;53.588;10.176;2023-01-25T12:25:25;102754.34;;;1.06;75.53
46394;BME280;32099;53.588;10.176;2023-01-25T12:33:14;102723.59;;;1.14;74.97
46394;BME280;32099;53.588;10.176;2023-01-25T12:36:15;102711.66;;;1.19;75.37
46394;BME280;32099;53.588;10.176;2023-01-25T12:38:53;102709.84;;;1.20;75.11
46394;BME280;32099;53.588;10.176;2023-01-25T12:41:40;102706.28;;;1.19;75.15
46394;BME280;32099;53.588;10.176;2023-01-25T12:44:17;102699.88;;;1.22;75.30
46394;BME280;32099;53.588;10.176;2023-01-25T12:54:55;102687.13;;;1.08;75.14
46394;BME280;32099;53.588;10.176;2023-01-25T13:03:22;102677.72;;;1.17;75.25
46394;BME280;32099;53.588;10.176;2023-01-25T13:08:33;102672.44;;;1.15;75.44
46394;BME280;32099;53.588;10.176;2023-01-25T13:13:43;102658.88;;;0.99;75.19
46394;BME280;32099;53.588;10.176;2023-01-25T13:16:22;102653.63;;;0.96;75.12
46394;BME280;32099;53.588;10.176;2023-01-25T13:18:57;102646.50;;;0.95;75.51
46394;BME280;32099;53.588;10.176;2023-01-25T13:21:39;102643.25;;;0.88;75.18
46394;BME280;32099;53.588;10.176;2023-01-25T13:24:13;102646.72;;;0.90;75.73
46394;BME280;32099;53.588;10.176;2023-01-25T13:31:54;102629.66;;;0.91;75.91
46394;BME280;32099;53.588;10.176;2023-01-25T13:44:36;102621.88;;;1.04;76.07
46394;BME280;32099;53.588;10.176;2023-01-25T13:47:09;102624.50;;;1.06;75.96
46394;BME280;32099;53.588;10.176;2023-01-25T13:49:39;102613.66;;;1.07;76.11
46394;BME280;32099;53.588;10.176;2023-01-25T13:52:15;102610.03;;;1.08;75.64
46394;BME280;32099;53.588;10.176;2023-01-25T13:54:43;102604.66;;;1.08;75.67
46394;BME280;32099;53.588;10.176;2023-01-25T13:57:14;102593.84;;;1.10;75.73
46394;BME280;32099;53.588;10.176;2023-01-25T13:59:44;102602.88;;;1.09;75.83
46394;BME280;32099;53.588;10.176;2023-01-25T14:02:17;102601.19;;;1.06;75.64
46394;BME280;32099;53.588;10.176;2023-01-25T14:04:45;102605.94;;;1.01;75.73
46394;BME280;32099;53.588;10.176;2023-01-25T14:07:15;102600.78;;;0.97;75.67
46394;BME280;32099;53.588;10.176;2023-01-25T14:09:44;102598.09;;;0.97;76.40
46394;BME280;32099;53.588;10.176;2023-01-25T14:12:13;102597.22;;;0.96;76.36
46394;BME280;32099;53.588;10.176;2023-01-25T14:14:55;102588.72;;;0.86;76.41
46394;BME280;32099;53.588;10.176;2023-01-25T14:17:21;102597.94;;;0.81;77.00
46394;BME280;32099;53.588;10.176;2023-01-25T14:19:56;102588.22;;;0.78;76.92
46394;BME280;32099;53.588;10.176;2023-01-25T14:22:25;102585.41;;;0.81;76.98
46394;BME280;32099;53.588;10.176;2023-01-25T14:27:42;102576.66;;;0.95;76.89